Time;durP1;ratioP1;P1;durP2;ratioP2;P2;SDS_P1;SDS_P2;PMS_P1;PMS_P2;Temp;Humidity;BMP_temperature;BMP_pressure;BME280_temperature;BME280_humidity;BME280_pressure;Samples;Min_cycle;Max_cycle;Signal;HPM_P1;HPM_P2
2024/04/15 00:01:31;;;;;;;2.47;1.88;;;20.70;73.90;;;;;;5428991;26;20018;-58
2024/04/15 00:03:56;;;;;;;2.70;2.08;;;20.70;74.00;;;;;;5429116;26;20395;-58
2024/04/15 00:06:23;;;;;;;4.10;2.00;;;20.70;74.10;;;;;;5428947;26;20003;-59
2024/04/15 00:08:49;;;;;;;3.00;2.00;;;20.60;74.10;;;;;;5427122;26;20011;-58
2024/04/15 00:11:14;;;;;;;2.97;2.08;;;20.60;74.30;;;;;;5426897;26;20003;-58
2024/04/15 00:13:40;;;;;;;7.50;2.40;;;20.50;74.50;;;;;;5426870;26;20006;-58
2024/04/15 00:16:09;;;;;;;6.07;2.30;;;20.50;74.50;;;;;;5426773;26;20022;-59
2024/04/15 00:18:34;;;;;;;3.22;2.05;;;20.40;74.70;;;;;;5426754;26;20008;-59
2024/04/15 00:21:00;;;;;;;5.25;2.20;;;20.40;74.90;;;;;;5428746;26;20010;-58
2024/04/15 00:23:26;;;;;;;3.58;2.25;;;20.40;74.90;;;;;;5399038;26;19992;-59
2024/04/15 00:25:56;;;;;;;3.42;1.90;;;20.40;75.00;;;;;;5461922;26;20418;-58
2024/04/15 00:28:21;;;;;;;2.85;1.98;;;20.40;75.00;;;;;;5438403;26;20007;-58
2024/04/15 00:30:48;;;;;;;4.40;1.80;;;20.30;75.00;;;;;;5426555;26;19987;-58
2024/04/15 00:33:14;;;;;;;3.88;2.17;;;20.30;75.10;;;;;;5418940;26;20020;-58
2024/04/15 00:35:43;;;;;;;4.35;2.20;;;20.20;75.10;;;;;;5428523;26;20011;-58
2024/04/15 00:38:09;;;;;;;3.72;2.03;;;20.20;75.20;;;;;;5428500;26;20030;-58
2024/04/15 00:40:34;;;;;;;2.50;2.03;;;20.20;75.40;;;;;;5428499;26;20003;-58
2024/04/15 00:43:01;;;;;;;7.10;2.60;;;20.20;75.50;;;;;;5426362;26;19999;-58
2024/04/15 00:45:33;;;;;;;2.60;2.10;;;20.10;75.60;;;;;;5396665;26;20303;-58
2024/04/15 00:48:00;;;;;;;2.97;2.30;;;20.10;75.70;;;;;;5426355;26;20014;-58
2024/04/15 00:50:26;;;;;;;4.60;2.00;;;20.10;75.70;;;;;;5426790;26;20003;-58
2024/04/15 00:52:52;;;;;;;2.58;2.00;;;20.10;75.80;;;;;;5426482;26;20003;-59
2024/04/15 00:55:18;;;;;;;2.35;1.98;;;20.00;75.90;;;;;;5426140;26;19999;-58
2024/04/15 00:57:45;;;;;;;3.63;2.25;;;20.00;76.10;;;;;;5426388;26;20031;-58
2024/04/15 01:00:12;;;;;;;3.80;2.05;;;20.00;76.20;;;;;;5426375;26;20024;-58
2024/04/15 01:02:38;;;;;;;2.63;2.00;;;19.90;76.20;;;;;;5426319;26;20079;-59
2024/04/15 01:05:04;;;;;;;4.10;1.98;;;19.90;76.30;;;;;;5426197;26;20403;-59
2024/04/15 01:07:30;;;;;;;2.58;2.00;;;19.90;76.40;;;;;;5425957;26;20014;-58
2024/04/15 01:09:56;;;;;;;5.10;2.08;;;19.80;76.50;;;;;;5426121;26;20365;-58
2024/04/15 01:12:22;;;;;;;2.63;2.22;;;19.90;76.60;;;;;;5426291;26;20068;-58
2024/04/15 01:14:48;;;;;;;6.00;2.30;;;19.80;76.60;;;;;;5428015;26;20003;-58
2024/04/15 01:17:13;;;;;;;2.83;2.00;;;19.80;76.70;;;;;;5426225;26;19995;-58
2024/04/15 01:19:39;;;;;;;4.07;2.50;;;19.80;76.90;;;;;;5427985;26;20419;-59
2024/04/15 01:22:05;;;;;;;2.83;2.25;;;19.80;77.00;;;;;;5428116;26;20034;-58
2024/04/15 01:24:30;;;;;;;3.33;2.30;;;19.80;77.10;;;;;;5396465;26;20037;-59
2024/04/15 01:26:56;;;;;;;2.65;1.85;;;19.80;77.20;;;;;;5425988;26;19999;-58
2024/04/15 01:29:23;;;;;;;4.68;2.30;;;19.70;77.20;;;;;;5427906;26;19996;-58
2024/04/15 01:31:48;;;;;;;5.85;2.30;;;19.70;77.20;;;;;;5425871;26;19999;-58
2024/04/15 01:34:14;;;;;;;3.92;2.60;;;19.70;77.30;;;;;;5427714;26;20068;-58
2024/04/15 01:36:40;;;;;;;4.20;2.50;;;19.70;77.40;;;;;;5427774;26;19999;-58
2024/04/15 01:39:05;;;;;;;4.93;2.22;;;19.60;77.40;;;;;;5425816;26;19991;-58
2024/04/15 01:41:31;;;;;;;2.88;2.40;;;19.60;77.40;;;;;;5425756;26;19995;-58
2024/04/15 01:43:56;;;;;;;3.33;2.05;;;19.60;77.50;;;;;;5427507;26;20287;-58
2024/04/15 01:46:22;;;;;;;3.78;2.08;;;19.60;77.60;;;;;;5445170;26;20013;-58
2024/04/15 01:48:48;;;;;;;5.05;2.33;;;19.60;77.60;;;;;;5499694;26;19994;-58
2024/04/15 01:51:13;;;;;;;5.15;2.53;;;19.60;77.70;;;;;;5500072;26;19991;-58
2024/04/15 01:53:39;;;;;;;3.53;2.00;;;19.50;77.60;;;;;;5499768;26;19994;-58
2024/04/15 01:56:05;;;;;;;3.33;2.67;;;19.50;77.60;;;;;;5467587;26;20116;-58
2024/04/15 01:58:31;;;;;;;6.82;2.25;;;19.50;77.70;;;;;;5437787;26;20012;-58
2024/04/15 02:01:04;;;;;;;2.60;2.15;;;19.50;77.70;;;;;;5497905;26;19990;-58
2024/04/15 02:03:30;;;;;;;3.17;2.13;;;19.50;77.70;;;;;;5497432;26;20075;-58
2024/04/15 02:05:56;;;;;;;4.88;2.10;;;19.50;77.80;;;;;;5497780;26;20002;-59
2024/04/15 02:08:21;;;;;;;3.45;2.30;;;19.50;77.90;;;;;;5467194;26;20004;-58
2024/04/15 02:10:47;;;;;;;5.00;2.30;;;19.50;77.90;;;;;;5499524;26;19997;-58
2024/04/15 02:13:13;;;;;;;3.47;2.45;;;19.50;77.90;;;;;;5497687;26;20002;-58
2024/04/15 02:15:40;;;;;;;3.33;2.38;;;19.50;77.90;;;;;;5497636;26;19994;-58
2024/04/15 02:18:05;;;;;;;2.15;1.95;;;19.50;77.90;;;;;;5497651;26;20006;-58
2024/04/15 02:20:31;;;;;;;2.88;2.10;;;19.50;77.90;;;;;;5499392;26;20048;-58
2024/04/15 02:22:56;;;;;;;4.15;2.20;;;19.40;77.90;;;;;;5499296;26;20429;-58
2024/04/15 02:25:22;;;;;;;3.30;1.90;;;19.40;77.90;;;;;;5497466;26;20006;-58
2024/04/15 02:27:48;;;;;;;3.42;2.50;;;19.40;78.00;;;;;;5497742;26;20002;-58
2024/04/15 02:30:13;;;;;;;4.70;2.20;;;19.40;78.00;;;;;;5497462;26;20018;-58
2024/04/15 02:32:42;;;;;;;3.88;2.47;;;19.40;78.10;;;;;;5497370;26;20070;-58
2024/04/15 02:35:07;;;;;;;2.55;2.33;;;19.40;78.20;;;;;;5499323;26;20005;-58
2024/04/15 02:37:33;;;;;;;3.28;2.33;;;19.40;78.20;;;;;;5499297;26;20002;-58
2024/04/15 02:39:59;;;;;;;4.25;2.40;;;19.40;78.10;;;;;;5499114;26;20005;-58
2024/04/15 02:42:24;;;;;;;2.90;2.30;;;19.40;78.00;;;;;;5497237;26;19998;-58
2024/04/15 02:44:50;;;;;;;4.90;2.22;;;19.40;78.10;;;;;;5497047;26;20005;-58
2024/04/15 02:47:15;;;;;;;3.67;2.03;;;19.30;78.20;;;;;;5497019;26;20070;-58
2024/04/15 02:49:41;;;;;;;2.45;2.25;;;19.40;78.30;;;;;;5498827;26;19994;-58
2024/04/15 02:52:07;;;;;;;5.85;2.30;;;19.30;78.30;;;;;;5496878;26;19998;-58
2024/04/15 02:54:32;;;;;;;2.97;2.33;;;19.30;78.30;;;;;;5498835;26;20008;-58
2024/04/15 02:56:58;;;;;;;5.25;2.42;;;19.30;78.30;;;;;;5496973;26;20047;-58
2024/04/15 02:59:24;;;;;;;3.58;2.03;;;19.30;78.40;;;;;;5498566;26;20017;-58
2024/04/15 03:01:49;;;;;;;4.50;2.50;;;19.20;78.40;;;;;;5496872;26;20128;-58
2024/04/15 03:04:15;;;;;;;6.05;2.30;;;19.30;78.50;;;;;;5496681;26;20113;-58
2024/04/15 03:06:41;;;;;;;4.45;2.35;;;19.20;78.50;;;;;;5496773;26;20016;-58
2024/04/15 03:09:08;;;;;;;7.15;2.50;;;19.20;78.50;;;;;;5498417;26;20010;-58
2024/04/15 03:11:34;;;;;;;2.35;2.08;;;19.20;78.50;;;;;;5498528;26;19998;-59
2024/04/15 03:13:59;;;;;;;2.97;2.10;;;19.20;78.60;;;;;;5497640;26;20002;-58
2024/04/15 03:16:25;;;;;;;7.03;2.33;;;19.20;78.60;;;;;;5500400;26;20005;-58
2024/04/15 03:18:51;;;;;;;2.53;2.08;;;19.10;78.70;;;;;;5500231;26;20002;-58
2024/04/15 03:21:16;;;;;;;4.43;2.50;;;19.10;78.70;;;;;;5500216;26;19998;-58
2024/04/15 03:23:42;;;;;;;5.78;2.13;;;19.20;78.80;;;;;;5500089;26;20387;-58
2024/04/15 03:26:08;;;;;;;3.28;2.55;;;19.20;78.90;;;;;;5502092;26;20001;-58
2024/04/15 03:28:33;;;;;;;5.35;2.50;;;19.10;78.80;;;;;;5500118;26;20066;-58
2024/04/15 03:31:00;;;;;;;3.90;2.50;;;19.10;78.90;;;;;;5501919;26;20002;-58
2024/04/15 03:33:25;;;;;;;5.63;2.47;;;19.10;78.90;;;;;;5500147;26;20071;-58
2024/04/15 03:35:51;;;;;;;4.90;2.13;;;19.10;78.90;;;;;;5500072;26;20002;-58
2024/04/15 03:38:17;;;;;;;3.60;2.38;;;19.10;78.90;;;;;;5500001;26;20002;-58
2024/04/15 03:40:43;;;;;;;2.30;2.10;;;19.00;78.90;;;;;;5501904;26;20016;-58
2024/04/15 03:43:09;;;;;;;4.93;2.58;;;19.00;78.90;;;;;;5501853;26;19994;-58
2024/04/15 03:45:34;;;;;;;3.28;2.60;;;19.00;78.90;;;;;;5499967;26;20001;-58
2024/04/15 03:48:00;;;;;;;2.88;2.17;;;19.00;79.00;;;;;;5501766;26;19994;-58
2024/04/15 03:50:26;;;;;;;3.72;2.40;;;19.00;79.00;;;;;;5501357;26;20001;-58
2024/04/15 03:52:51;;;;;;;2.75;2.00;;;19.00;79.00;;;;;;5499649;26;19998;-58
2024/04/15 03:55:17;;;;;;;5.20;2.20;;;19.00;79.00;;;;;;5501698;26;19994;-58
2024/04/15 03:57:42;;;;;;;3.22;2.15;;;19.00;79.20;;;;;;5499823;26;19998;-58
2024/04/15 04:00:08;;;;;;;4.95;2.47;;;19.00;79.40;;;;;;5499639;26;20008;-58
2024/04/15 04:02:34;;;;;;;3.75;2.40;;;19.00;79.40;;;;;;5501337;26;20009;-58
2024/04/15 04:05:00;;;;;;;3.65;2.38;;;19.00;79.30;;;;;;5499641;26;19998;-58
2024/04/15 04:07:25;;;;;;;3.00;2.45;;;18.90;79.20;;;;;;5499486;26;20006;-58
2024/04/15 04:09:51;;;;;;;4.22;2.50;;;19.00;79.40;;;;;;5501383;26;20006;-58
2024/04/15 04:12:17;;;;;;;4.15;2.53;;;18.90;79.50;;;;;;5501394;26;20014;-58
2024/04/15 04:14:43;;;;;;;4.60;2.17;;;18.90;79.60;;;;;;5499545;26;19994;-58
2024/04/15 04:17:09;;;;;;;4.38;2.58;;;18.90;79.70;;;;;;5501439;26;20001;-58
2024/04/15 04:19:35;;;;;;;4.40;2.35;;;18.90;79.60;;;;;;5499471;26;20006;-58
2024/04/15 04:22:00;;;;;;;7.45;2.50;;;18.90;79.60;;;;;;5468975;26;20011;-58
2024/04/15 04:24:27;;;;;;;5.45;2.53;;;18.90;79.80;;;;;;5501026;26;20502;-59
2024/04/15 04:26:52;;;;;;;3.70;2.28;;;18.90;79.70;;;;;;5499380;26;20004;-58
2024/04/15 04:29:18;;;;;;;5.47;2.40;;;18.90;79.80;;;;;;5500981;26;20002;-58
2024/04/15 04:31:44;;;;;;;6.10;2.50;;;18.90;79.80;;;;;;5501100;26;20021;-58
2024/04/15 04:34:09;;;;;;;9.45;2.70;;;18.90;79.90;;;;;;5499253;26;20074;-58
2024/04/15 04:36:35;;;;;;;9.85;2.70;;;18.90;80.00;;;;;;5501303;26;19994;-58
2024/04/15 04:39:00;;;;;;;8.98;2.67;;;18.90;80.00;;;;;;5499067;26;20002;-59
2024/04/15 04:41:26;;;;;;;4.90;2.90;;;18.90;80.00;;;;;;5499092;26;19990;-58
2024/04/15 04:43:52;;;;;;;6.53;2.47;;;18.80;80.00;;;;;;5500750;26;20390;-58
2024/04/15 04:46:17;;;;;;;17.00;4.10;;;18.80;80.00;;;;;;5500737;26;19995;-58
2024/04/15 04:48:43;;;;;;;10.05;3.28;;;18.80;80.10;;;;;;5445787;26;19999;-58
2024/04/15 04:51:09;;;;;;;10.77;3.13;;;18.80;80.20;;;;;;5438061;26;19999;-58
2024/04/15 04:53:35;;;;;;;9.45;3.65;;;18.90;80.30;;;;;;5427996;26;20012;-59
2024/04/15 04:56:13;;;;;;;10.73;3.47;;;18.80;80.40;;;;;;5426902;26;20010;-58
2024/04/15 04:58:39;;;;;;;15.38;3.80;;;18.80;80.40;;;;;;5426189;26;20000;-58
2024/04/15 05:01:09;;;;;;;15.65;3.95;;;18.90;80.50;;;;;;5426117;26;20014;-58
2024/04/15 05:03:35;;;;;;;14.88;3.75;;;18.90;80.50;;;;;;5430227;26;20519;-58
2024/04/15 05:06:05;;;;;;;11.70;4.38;;;18.90;80.40;;;;;;5428145;26;20011;-58
2024/04/15 05:08:31;;;;;;;17.65;4.50;;;18.90;80.50;;;;;;5396287;26;19999;-58
2024/04/15 05:10:57;;;;;;;24.20;6.28;;;18.90;80.50;;;;;;5453849;26;19991;-58
2024/04/15 05:13:22;;;;;;;18.15;4.47;;;18.90;80.80;;;;;;5463789;26;20359;-58
2024/04/15 05:15:48;;;;;;;14.43;4.55;;;18.90;80.80;;;;;;5462147;26;20144;-58
2024/04/15 05:18:13;;;;;;;37.05;5.25;;;18.90;80.60;;;;;;5432208;26;20071;-59
2024/04/15 05:20:39;;;;;;;30.35;4.75;;;18.90;80.60;;;;;;5431198;26;19991;-58
2024/04/15 05:23:04;;;;;;;22.38;5.45;;;18.90;80.80;;;;;;5463805;26;19991;-58
2024/04/15 05:25:30;;;;;;;18.92;5.40;;;18.90;80.90;;;;;;5461782;26;19994;-58
2024/04/15 05:27:56;;;;;;;22.10;5.78;;;18.90;81.20;;;;;;5492240;26;20002;-58
2024/04/15 05:30:21;;;;;;;31.95;6.50;;;18.90;81.40;;;;;;5461729;26;20010;-58
2024/04/15 05:32:47;;;;;;;40.50;6.97;;;18.90;81.70;;;;;;5462704;26;20110;-58
2024/04/15 05:35:13;;;;;;;30.27;5.93;;;18.90;81.90;;;;;;5460946;26;20106;-58
2024/04/15 05:37:38;;;;;;;27.55;5.70;;;18.90;82.00;;;;;;5460579;26;20006;-58
2024/04/15 05:40:04;;;;;;;27.63;5.65;;;18.90;82.20;;;;;;5461583;26;19998;-58
2024/04/15 05:42:30;;;;;;;22.95;5.88;;;18.90;82.20;;;;;;5463592;26;19991;-58
2024/04/15 05:44:56;;;;;;;23.95;5.38;;;18.90;82.40;;;;;;5460104;26;20003;-58
2024/04/15 05:47:21;;;;;;;28.88;5.40;;;18.90;82.40;;;;;;5458143;26;20003;-58
2024/04/15 05:49:47;;;;;;;23.77;5.78;;;18.90;82.40;;;;;;5425415;26;19996;-58
2024/04/15 05:52:13;;;;;;;16.90;5.28;;;18.90;82.30;;;;;;5429351;26;20000;-58
2024/04/15 05:54:38;;;;;;;78.05;9.57;;;18.90;82.20;;;;;;5461019;26;20009;-57
2024/04/15 05:57:04;;;;;;;20.55;5.72;;;18.80;82.10;;;;;;5461545;26;19987;-58
2024/04/15 05:59:30;;;;;;;18.58;6.00;;;18.80;82.10;;;;;;5461287;26;19991;-58
2024/04/15 06:01:55;;;;;;;28.85;6.25;;;18.80;82.10;;;;;;5424757;26;19995;-58
2024/04/15 06:04:21;;;;;;;34.67;8.02;;;18.80;82.20;;;;;;5424318;26;20010;-58
2024/04/15 06:06:49;;;;;;;37.58;7.45;;;18.80;82.20;;;;;;5426362;26;19991;-58
2024/04/15 06:09:14;;;;;;;44.08;9.90;;;18.80;82.20;;;;;;5423252;26;19996;-58
2024/04/15 06:11:40;;;;;;;44.85;7.97;;;18.80;82.30;;;;;;5426504;26;19996;-58
2024/04/15 06:14:06;;;;;;;35.60;7.57;;;18.90;82.40;;;;;;5423106;26;20007;-58
2024/04/15 06:16:31;;;;;;;39.45;8.27;;;18.90;82.40;;;;;;5425215;26;19992;-58
2024/04/15 06:18:57;;;;;;;37.53;7.72;;;18.90;82.40;;;;;;5425397;26;19999;-58
2024/04/15 06:21:22;;;;;;;39.97;8.13;;;18.90;82.50;;;;;;5425311;26;19991;-58
2024/04/15 06:23:48;;;;;;;45.00;8.68;;;18.90;82.50;;;;;;5424979;26;19996;-58
2024/04/15 06:26:14;;;;;;;41.88;7.40;;;18.90;82.40;;;;;;5426811;26;20032;-58
2024/04/15 06:28:39;;;;;;;40.85;8.05;;;18.90;82.40;;;;;;5424854;26;20007;-58
2024/04/15 06:31:05;;;;;;;30.17;6.65;;;18.90;82.30;;;;;;5424791;26;19999;-58
2024/04/15 06:33:30;;;;;;;33.80;8.10;;;18.90;82.20;;;;;;5424849;26;20003;-58
2024/04/15 06:35:56;;;;;;;32.20;7.38;;;18.90;82.20;;;;;;5426801;26;20496;-58
2024/04/15 06:38:22;;;;;;;37.67;7.18;;;18.90;82.20;;;;;;5454602;26;20003;-58
2024/04/15 06:40:47;;;;;;;24.05;7.18;;;18.90;82.10;;;;;;5426643;26;20011;-59
2024/04/15 06:43:13;;;;;;;31.55;7.90;;;18.90;82.00;;;;;;5426530;26;20134;-58
2024/04/15 06:45:39;;;;;;;35.17;7.32;;;19.00;82.00;;;;;;5424518;26;20068;-58
2024/04/15 06:48:05;;;;;;;26.38;7.35;;;19.00;82.00;;;;;;5426565;26;19995;-58
2024/04/15 06:50:31;;;;;;;33.72;7.35;;;19.00;81.90;;;;;;5429493;26;19999;-58
2024/04/15 06:52:59;;;;;;;36.78;7.63;;;19.00;81.90;;;;;;5398340;26;19992;-58
2024/04/15 06:55:24;;;;;;;32.13;7.45;;;19.00;81.90;;;;;;5427892;26;20006;-58
2024/04/15 06:57:50;;;;;;;51.85;7.30;;;19.00;82.10;;;;;;5428157;26;19991;-58
2024/04/15 07:00:16;;;;;;;36.63;6.72;;;19.10;82.30;;;;;;5457894;26;20006;-58
2024/04/15 07:02:41;;;;;;;39.17;7.47;;;19.00;82.00;;;;;;5428020;26;20021;-58
2024/04/15 07:05:07;;;;;;;36.97;7.05;;;19.10;82.30;;;;;;5441933;26;20010;-58
2024/04/15 07:07:33;;;;;;;49.72;7.57;;;19.10;82.80;;;;;;5515776;26;19999;-58
2024/04/15 07:09:58;;;;;;;36.53;6.70;;;19.10;83.00;;;;;;5463638;26;20426;-58
2024/04/15 07:12:24;;;;;;;29.75;6.93;;;19.00;83.00;;;;;;5463008;26;20010;-58
2024/04/15 07:14:50;;;;;;;25.42;6.28;;;19.00;83.10;;;;;;5462388;26;20006;-58
2024/04/15 07:17:15;;;;;;;34.03;7.00;;;19.00;83.40;;;;;;5465599;26;19991;-58
2024/04/15 07:19:41;;;;;;;32.47;6.32;;;19.00;83.60;;;;;;5465017;26;20008;-58
2024/04/15 07:22:06;;;;;;;35.30;5.70;;;19.00;83.70;;;;;;5432465;26;20002;-58
2024/04/15 07:24:33;;;;;;;34.42;6.15;;;19.00;83.90;;;;;;5432069;26;20006;-59
2024/04/15 07:26:59;;;;;;;32.30;6.78;;;19.00;83.90;;;;;;5464442;26;20002;-58
2024/04/15 07:29:25;;;;;;;27.17;5.70;;;19.00;84.10;;;;;;5455390;26;19999;-58
2024/04/15 07:31:50;;;;;;;29.33;5.50;;;19.00;85.10;;;;;;5456211;26;19999;-59
2024/04/15 07:34:16;;;;;;;23.48;5.68;;;19.00;85.50;;;;;;5424953;26;20452;-59
2024/04/15 07:36:41;;;;;;;24.52;5.63;;;19.00;86.00;;;;;;5453363;26;20003;-59
2024/04/15 07:39:07;;;;;;;21.45;5.72;;;19.00;86.20;;;;;;5444408;26;19995;-59
2024/04/15 07:41:33;;;;;;;27.33;5.57;;;18.90;86.30;;;;;;5451170;26;19998;-58
2024/04/15 07:43:58;;;;;;;25.55;5.90;;;18.90;87.00;;;;;;5456519;26;20000;-58
2024/04/15 07:46:24;;;;;;;26.15;5.85;;;18.80;87.10;;;;;;5464430;26;20010;-58
2024/04/15 07:48:50;;;;;;;30.33;6.13;;;18.90;87.40;;;;;;5459818;26;20006;-59
2024/04/15 07:51:16;;;;;;;39.38;6.65;;;18.90;87.60;;;;;;5459853;26;20053;-58
2024/04/15 07:53:41;;;;;;;35.08;7.05;;;18.90;88.30;;;;;;5460678;26;20003;-57
2024/04/15 07:56:11;;;;;;;51.33;7.78;;;18.90;88.60;;;;;;5462867;26;20005;-58
2024/04/15 07:58:37;;;;;;;36.92;7.30;;;18.80;89.20;;;;;;5450325;26;20068;-58
2024/04/15 08:01:02;;;;;;;37.33;7.28;;;18.90;90.10;;;;;;5448096;26;20011;-58
2024/04/15 08:03:28;;;;;;;45.05;9.02;;;18.90;89.70;;;;;;5459115;26;20074;-58
2024/04/15 08:05:54;;;;;;;44.67;7.18;;;18.90;90.00;;;;;;5455056;26;20030;-58
2024/04/15 08:08:19;;;;;;;31.92;6.70;;;18.90;90.20;;;;;;5473501;26;19995;-58
2024/04/15 08:10:45;;;;;;;53.08;8.90;;;18.90;90.30;;;;;;5457496;26;20074;-58
2024/04/15 08:13:11;;;;;;;52.90;8.50;;;18.90;90.60;;;;;;5460193;26;19995;-58
2024/04/15 08:15:36;;;;;;;39.35;8.68;;;18.80;90.90;;;;;;5425904;26;19996;-58
2024/04/15 08:18:02;;;;;;;40.65;8.48;;;18.80;91.00;;;;;;5428841;26;20562;-58
2024/04/15 08:20:28;;;;;;;61.40;8.63;;;18.80;91.20;;;;;;5460742;26;20117;-58
2024/04/15 08:22:54;;;;;;;45.90;7.22;;;18.80;91.40;;;;;;5462123;26;19999;-58
2024/04/15 08:25:19;;;;;;;56.75;8.80;;;18.80;91.50;;;;;;5458154;26;20019;-58
2024/04/15 08:27:45;;;;;;;46.67;8.52;;;18.80;91.80;;;;;;5450046;26;20068;-57
2024/04/15 08:30:10;;;;;;;43.45;8.02;;;18.80;91.70;;;;;;5462098;26;20002;-59
2024/04/15 08:32:36;;;;;;;46.80;7.75;;;18.80;91.70;;;;;;5447472;26;20034;-58
2024/04/15 08:35:02;;;;;;;48.38;8.20;;;18.80;91.80;;;;;;5424193;26;20011;-58
2024/04/15 08:37:28;;;;;;;59.55;8.40;;;18.80;91.60;;;;;;5451164;26;20007;-58
2024/04/15 08:39:53;;;;;;;47.92;8.10;;;18.80;92.00;;;;;;5442324;26;20026;-58
2024/04/15 08:42:29;;;;;;;50.97;8.52;;;18.80;92.10;;;;;;5438573;26;20088;-58
2024/04/15 08:44:55;;;;;;;68.22;8.90;;;18.80;92.20;;;;;;5454125;26;20122;-57
2024/04/15 08:47:30;;;;;;;83.18;11.35;;;18.80;92.20;;;;;;5482592;26;20023;-57
2024/04/15 08:49:59;;;;;;;92.95;10.23;;;18.80;92.20;;;;;;5424951;26;20416;-57
2024/04/15 08:52:24;;;;;;;102.30;10.32;;;18.80;92.40;;;;;;5447414;26;20003;-58
2024/04/15 08:54:50;;;;;;;80.88;10.00;;;18.80;92.50;;;;;;5449479;26;20017;-58
2024/04/15 08:57:16;;;;;;;82.43;11.10;;;18.80;92.60;;;;;;5459495;26;20426;-58
2024/04/15 08:59:43;;;;;;;78.32;10.23;;;18.80;92.80;;;;;;5452417;26;20003;-58
2024/04/15 09:02:10;;;;;;;85.50;11.27;;;18.80;92.80;;;;;;5445907;26;20458;-58
2024/04/15 09:04:35;;;;;;;110.47;12.05;;;18.80;92.80;;;;;;5454470;26;20076;-60
2024/04/15 09:07:01;;;;;;;108.32;13.95;;;18.80;93.10;;;;;;5485253;25;20002;-59
2024/04/15 09:09:27;;;;;;;117.57;13.80;;;18.80;93.30;;;;;;5468481;26;20414;-58
2024/04/15 09:11:52;;;;;;;101.60;12.35;;;18.80;93.60;;;;;;5463063;26;19998;-58
2024/04/15 09:14:18;;;;;;;112.70;14.93;;;18.80;93.30;;;;;;5423864;26;20014;-58
2024/04/15 09:16:45;;;;;;;141.85;16.25;;;18.80;93.40;;;;;;5443749;26;19994;-58
2024/04/15 09:19:11;;;;;;;117.00;15.57;;;18.80;93.50;;;;;;5453977;26;19996;-58
2024/04/15 09:21:37;;;;;;;131.07;13.77;;;18.90;93.50;;;;;;5461166;26;20029;-58
2024/04/15 09:24:03;;;;;;;134.85;13.68;;;18.90;93.40;;;;;;5446733;26;19996;-58
2024/04/15 09:26:28;;;;;;;111.68;12.77;;;18.90;93.50;;;;;;5492260;26;20010;-58
2024/04/15 09:28:54;;;;;;;112.50;12.70;;;18.90;93.40;;;;;;5403391;26;19999;-55
2024/04/15 09:31:20;;;;;;;161.95;18.75;;;18.90;93.60;;;;;;5420793;26;20036;-58
2024/04/15 09:33:47;;;;;;;190.10;17.73;;;18.90;93.50;;;;;;5432699;26;19995;-58
2024/04/15 09:36:13;;;;;;;197.18;18.77;;;18.90;93.80;;;;;;5417844;26;20007;-58
2024/04/15 09:38:38;;;;;;;163.95;17.85;;;18.90;93.70;;;;;;5433678;26;20014;-58
2024/04/15 09:41:04;;;;;;;133.95;16.25;;;18.90;93.70;;;;;;5440192;26;19999;-58
2024/04/15 09:43:31;;;;;;;173.63;19.60;;;18.90;93.80;;;;;;5449576;26;20005;-58
2024/04/15 09:45:56;;;;;;;141.13;18.73;;;19.00;93.70;;;;;;5431315;26;20012;-58
2024/04/15 09:48:23;;;;;;;139.63;18.50;;;18.90;93.90;;;;;;5434887;26;20335;-58
2024/04/15 09:50:50;;;;;;;133.50;16.73;;;19.00;94.10;;;;;;5445114;26;20072;-58
2024/04/15 09:53:26;;;;;;;145.35;16.75;;;19.00;94.00;;;;;;5465999;26;20033;-58
2024/04/15 09:55:52;;;;;;;112.25;14.82;;;19.00;93.80;;;;;;5418967;26;20050;-58
2024/04/15 09:58:19;;;;;;;131.13;17.88;;;19.00;93.50;;;;;;5441616;26;19999;-58
2024/04/15 10:00:45;;;;;;;132.55;16.98;;;19.10;93.60;;;;;;5481758;26;20019;-58
2024/04/15 10:03:15;;;;;;;155.23;16.92;;;19.10;93.60;;;;;;5460020;26;20342;-58
2024/04/15 10:05:41;;;;;;;143.80;16.67;;;19.10;93.60;;;;;;5443435;26;20015;-58
2024/04/15 10:08:07;;;;;;;121.40;15.25;;;19.10;93.30;;;;;;5427419;26;20060;-58
2024/04/15 10:10:33;;;;;;;119.75;15.52;;;19.20;93.70;;;;;;5484669;26;20013;-58
2024/04/15 10:13:00;;;;;;;111.28;13.70;;;19.20;93.70;;;;;;5438346;26;20010;-58
2024/04/15 10:15:26;;;;;;;127.93;16.13;;;19.20;93.90;;;;;;5395023;26;20019;-58
2024/04/15 10:18:18;;;;;;;110.00;13.38;;;19.20;93.60;;;;;;5412962;26;20014;-58
2024/04/15 10:20:48;;;;;;;114.05;14.45;;;19.20;93.50;;;;;;5496959;26;19998;-58
2024/04/15 10:23:18;;;;;;;159.23;15.27;;;19.20;93.90;;;;;;5450357;26;20059;-58
2024/04/15 10:25:44;;;;;;;96.00;14.25;;;19.30;94.40;;;;;;5456122;26;20005;-58
2024/04/15 10:28:11;;;;;;;122.90;14.77;;;19.30;94.10;;;;;;5423647;26;19999;-58
2024/04/15 10:30:37;;;;;;;112.20;15.02;;;19.30;94.30;;;;;;5454910;26;20006;-57
2024/04/15 10:33:04;;;;;;;124.45;14.57;;;19.30;94.60;;;;;;5454166;26;19999;-58
2024/04/15 10:35:32;;;;;;;110.63;12.27;;;19.30;94.40;;;;;;5442217;26;20029;-58
2024/04/15 10:38:07;;;;;;;127.22;13.75;;;19.30;94.40;;;;;;5455421;26;20120;-58
2024/04/15 10:40:43;;;;;;;104.03;12.05;;;19.30;94.10;;;;;;5434849;26;20384;-58
2024/04/15 10:43:10;;;;;;;98.80;13.00;;;19.30;93.90;;;;;;5484096;26;20014;-58
2024/04/15 10:45:36;;;;;;;96.95;12.13;;;19.40;94.40;;;;;;5428559;26;19999;-58
2024/04/15 10:48:02;;;;;;;85.07;12.70;;;19.40;93.90;;;;;;5474420;26;20009;-58
2024/04/15 10:50:28;;;;;;;91.35;11.20;;;19.40;94.00;;;;;;5442943;26;20002;-58
2024/04/15 10:52:53;;;;;;;106.80;12.02;;;19.40;94.20;;;;;;5421913;26;20008;-58
2024/04/15 10:55:20;;;;;;;91.35;13.02;;;19.50;94.20;;;;;;5460287;26;19995;-58
2024/04/15 10:57:45;;;;;;;103.07;13.57;;;19.40;94.50;;;;;;5454714;26;20010;-58
2024/04/15 11:00:12;;;;;;;80.68;11.57;;;19.50;94.60;;;;;;5435029;26;19996;-58
2024/04/15 11:02:50;;;;;;;167.25;15.75;;;19.50;94.40;;;;;;5437611;26;20003;-58
2024/04/15 11:05:15;;;;;;;136.00;13.60;;;19.50;94.50;;;;;;5485458;26;20007;-58
2024/04/15 11:07:41;;;;;;;92.13;11.65;;;19.50;94.40;;;;;;5472618;26;20077;-58
2024/04/15 11:10:08;;;;;;;103.22;11.02;;;19.60;94.50;;;;;;5445798;26;20006;-58
2024/04/15 11:12:34;;;;;;;76.03;11.68;;;19.60;94.50;;;;;;5444559;26;20118;-58
2024/04/15 11:15:00;;;;;;;83.70;9.90;;;19.60;94.60;;;;;;5449905;26;19995;-58
2024/04/15 11:17:26;;;;;;;116.95;11.57;;;19.70;94.50;;;;;;5452973;26;20018;-58
2024/04/15 11:20:02;;;;;;;118.93;12.13;;;19.70;94.50;;;;;;5435658;26;20052;-58
2024/04/15 11:22:28;;;;;;;98.45;11.70;;;19.70;94.50;;;;;;5417694;26;20000;-58
2024/04/15 11:24:54;;;;;;;109.63;12.82;;;19.70;94.50;;;;;;5489665;26;20231;-58
2024/04/15 11:27:20;;;;;;;96.15;11.90;;;19.80;94.50;;;;;;5419107;26;19999;-58
2024/04/15 11:29:45;;;;;;;108.25;13.25;;;19.80;94.40;;;;;;5438864;26;20423;-58
2024/04/15 11:32:11;;;;;;;113.93;12.95;;;19.90;94.40;;;;;;5452182;26;20008;-58
2024/04/15 11:34:37;;;;;;;69.50;9.43;;;19.90;94.50;;;;;;5424247;26;20007;-58
2024/04/15 11:37:03;;;;;;;99.43;12.20;;;19.90;94.30;;;;;;5447116;26;20071;-58
2024/04/15 11:39:28;;;;;;;82.05;10.38;;;20.00;94.10;;;;;;5451560;26;20010;-58
2024/04/15 11:41:54;;;;;;;87.05;11.55;;;20.10;94.10;;;;;;5448114;26;20102;-58
2024/04/15 11:44:19;;;;;;;129.95;13.32;;;20.20;94.30;;;;;;5437249;26;20007;-59
2024/04/15 11:46:46;;;;;;;100.20;14.15;;;20.20;93.90;;;;;;5462989;26;20006;-58
2024/04/15 11:49:12;;;;;;;115.35;11.40;;;20.30;93.70;;;;;;5422524;26;20301;-58
2024/04/15 11:51:38;;;;;;;115.47;12.95;;;20.40;93.60;;;;;;5455369;26;20606;-58
2024/04/15 11:54:03;;;;;;;109.75;12.15;;;20.40;93.50;;;;;;5399429;26;20128;-58
2024/04/15 11:56:29;;;;;;;130.40;15.00;;;20.50;93.40;;;;;;5451056;26;19995;-58
2024/04/15 11:58:55;;;;;;;160.60;18.13;;;20.60;93.20;;;;;;5401930;26;20016;-58
2024/04/15 12:01:21;;;;;;;133.88;14.98;;;20.60;93.10;;;;;;5428525;26;20014;-58
2024/04/15 12:03:47;;;;;;;117.47;14.30;;;20.70;92.90;;;;;;5450102;26;20036;-58
2024/04/15 12:06:13;;;;;;;108.75;13.60;;;20.80;92.70;;;;;;5457349;26;20040;-58
2024/04/15 12:08:38;;;;;;;110.47;12.82;;;20.80;92.30;;;;;;5450644;26;20011;-58
2024/04/15 12:11:07;;;;;;;132.68;15.07;;;20.90;92.20;;;;;;5452522;26;20003;-58
2024/04/15 12:13:33;;;;;;;181.85;18.23;;;21.00;92.10;;;;;;5445185;26;20050;-58
2024/04/15 12:15:59;;;;;;;129.85;16.17;;;21.10;91.70;;;;;;5464419;26;20462;-59
2024/04/15 12:18:24;;;;;;;107.10;13.73;;;21.10;91.50;;;;;;5425191;26;20009;-58
2024/04/15 12:20:50;;;;;;;125.45;14.18;;;21.20;91.50;;;;;;5450247;26;20418;-58
2024/04/15 12:23:15;;;;;;;124.57;13.93;;;21.30;91.20;;;;;;5456866;26;20072;-58
2024/04/15 12:25:41;;;;;;;113.90;14.15;;;21.30;91.00;;;;;;5425988;26;20080;-58
2024/04/15 12:28:07;;;;;;;105.60;13.07;;;21.40;90.80;;;;;;5432947;26;20003;-58
2024/04/15 12:30:32;;;;;;;99.25;12.95;;;21.40;90.90;;;;;;5396269;26;20468;-58